^^
Paulen-Weather Station Historical Data
Daily Summary for July 05, 2022 Units:  English    Metric   Both
Daily Weekly Monthly Yearly Custom
  High: Low: Average:
Temperature: 66.2 °F 53.6 °F 58.1 °F
Dew Point: 55.4 °F 50 °F 52.7 °F
Humidity: 93% 62% 83%
Wind Speed: 18.6mph 1.9mph 7.3mph
Wind Gust: 15.5mph - -
Wind- - WSW
Pressure: 29.9 in 29.8 in -
Precipitation: 0 in    
Historical Graphs
 
 
Tabular Data for July 05, 2022
Time Temperature Dew Point Pressure Wind Wind Speed Wind Gust Humidity Rainfall Rate (Hourly) solar
00:04 55.4 °F 51.8 °F 29.8 in W 3.7 mph 3.1 mph 90% 0.01 in 0 W/m2
00:09 55.4 °F 51.8 °F 29.8 in WSW 5 mph 3.7 mph 91% 0.01 in 0 W/m2
00:14 55.4 °F 51.8 °F 29.8 in W 5 mph 3.7 mph 91% 0.01 in 0 W/m2
00:19 55.4 °F 51.8 °F 29.8 in W 5 mph 3.7 mph 91% 0.01 in 0 W/m2
00:24 55.4 °F 51.8 °F 29.8 in WSW 5.6 mph 4.3 mph 91% 0.01 in 0 W/m2
00:29 55.4 °F 51.8 °F 29.8 in WSW 5.6 mph 4.3 mph 92% 0.01 in 0 W/m2
00:34 55.4 °F 51.8 °F 29.8 in WSW 6.2 mph 5.6 mph 92% 0.01 in 0 W/m2
00:39 55.4 °F 51.8 °F 29.8 in SW 4.3 mph 3.1 mph 92% 0.01 in 0 W/m2
00:44 53.6 °F 51.8 °F 29.8 in WSW 5.6 mph 3.7 mph 92% 0.01 in 0 W/m2
00:49 53.6 °F 51.8 °F 29.8 in WSW 7.5 mph 5 mph 92% 0.01 in 0 W/m2
00:54 53.6 °F 51.8 °F 29.8 in W 5.6 mph 4.3 mph 92% 0.01 in 0 W/m2
00:59 53.6 °F 51.8 °F 29.8 in W 6.2 mph 4.3 mph 92% 0.01 in 0 W/m2
01:04 53.6 °F 51.8 °F 29.8 in WSW 3.7 mph 3.7 mph 92% 0 in 0 W/m2
01:09 53.6 °F 51.8 °F 29.8 in W 5 mph 4.3 mph 92% 0 in 0 W/m2
01:14 53.6 °F 51.8 °F 29.8 in WSW 4.3 mph 3.7 mph 92% 0 in 0 W/m2
01:19 53.6 °F 51.8 °F 29.8 in WSW 5 mph 5 mph 92% 0 in 0 W/m2
01:24 53.6 °F 51.8 °F 29.8 in W 5 mph 3.7 mph 92% 0 in 0 W/m2
01:29 53.6 °F 51.8 °F 29.8 in WSW 5.6 mph 3.1 mph 92% 0 in 0 W/m2
01:34 53.6 °F 51.8 °F 29.8 in W 6.2 mph 4.3 mph 92% 0 in 0 W/m2
01:39 53.6 °F 51.8 °F 29.8 in WSW 4.3 mph 4.3 mph 92% 0 in 0 W/m2
01:44 53.6 °F 51.8 °F 29.8 in WSW 6.8 mph 5 mph 93% 0 in 0 W/m2
01:49 53.6 °F 51.8 °F 29.8 in WSW 5 mph 3.1 mph 93% 0 in 0 W/m2
01:54 53.6 °F 51.8 °F 29.8 in W 5 mph 3.7 mph 93% 0 in 0 W/m2
01:59 53.6 °F 51.8 °F 29.8 in W 6.2 mph 4.3 mph 93% 0 in 0 W/m2
02:04 53.6 °F 51.8 °F 29.8 in WSW 5.6 mph 5.6 mph 92% 0 in 0 W/m2
02:09 53.6 °F 51.8 °F 29.8 in W 5 mph 4.3 mph 92% 0 in 0 W/m2
02:14 53.6 °F 51.8 °F 29.8 in W 5.6 mph 5 mph 92% 0 in 0 W/m2
02:19 53.6 °F 51.8 °F 29.8 in WSW 5 mph 3.7 mph 92% 0 in 0 W/m2
02:24 53.6 °F 51.8 °F 29.8 in W 3.7 mph 3.1 mph 92% 0 in 0 W/m2
02:29 53.6 °F 51.8 °F 29.8 in WSW 5.6 mph 3.7 mph 92% 0 in 0 W/m2
02:34 53.6 °F 51.8 °F 29.8 in WSW 5 mph 4.3 mph 91% 0 in 0 W/m2
02:39 53.6 °F 51.8 °F 29.8 in SW 6.2 mph 4.3 mph 91% 0 in 0 W/m2
02:44 53.6 °F 51.8 °F 29.8 in WSW 5.6 mph 4.3 mph 91% 0 in 0 W/m2
02:49 53.6 °F 51.8 °F 29.8 in WSW 6.2 mph 5 mph 91% 0 in 0 W/m2
02:54 53.6 °F 51.8 °F 29.8 in SW 5.6 mph 3.7 mph 91% 0 in 0 W/m2
02:59 53.6 °F 51.8 °F 29.8 in WSW 6.8 mph 4.3 mph 91% 0 in 0 W/m2
03:04 53.6 °F 51.8 °F 29.8 in WSW 4.3 mph 4.3 mph 91% 0 in 0 W/m2
03:09 53.6 °F 51.8 °F 29.8 in WSW 5.6 mph 4.3 mph 92% 0 in 0 W/m2
03:14 53.6 °F 51.8 °F 29.8 in WSW 4.3 mph 3.7 mph 92% 0 in 0 W/m2
03:19 53.6 °F 51.8 °F 29.8 in WSW 5.6 mph 4.3 mph 92% 0 in 0 W/m2
03:24 53.6 °F 51.8 °F 29.8 in WSW 4.3 mph 3.7 mph 92% 0 in 0 W/m2
03:29 53.6 °F 51.8 °F 29.8 in SW 4.3 mph 3.7 mph 92% 0 in 0 W/m2
03:34 53.6 °F 51.8 °F 29.8 in WSW 5 mph 4.3 mph 92% 0 in 0 W/m2
03:39 53.6 °F 51.8 °F 29.8 in SW 4.3 mph 3.1 mph 92% 0 in 0 W/m2
03:44 53.6 °F 51.8 °F 29.8 in WSW 6.2 mph 4.3 mph 92% 0 in 0 W/m2
03:49 53.6 °F 51.8 °F 29.8 in WSW 6.2 mph 5.6 mph 92% 0 in 0 W/m2
03:54 53.6 °F 51.8 °F 29.8 in WSW 6.2 mph 3.7 mph 92% 0 in 0 W/m2
03:59 53.6 °F 51.8 °F 29.8 in WSW 6.2 mph 5 mph 92% 0 in 0 W/m2
04:04 53.6 °F 51.8 °F 29.8 in WSW 4.3 mph 3.1 mph 92% 0 in 0 W/m2
04:09 53.6 °F 51.8 °F 29.8 in SW 4.3 mph 3.1 mph 93% 0 in 0 W/m2
04:14 53.6 °F 51.8 °F 29.8 in WSW 5 mph 3.7 mph 93% 0 in 0 W/m2
04:19 53.6 °F 51.8 °F 29.8 in WSW 5 mph 4.3 mph 93% 0 in 0 W/m2
04:24 53.6 °F 51.8 °F 29.9 in WSW 6.8 mph 5 mph 93% 0 in 5 W/m2
04:29 53.6 °F 51.8 °F 29.9 in WSW 4.3 mph 3.7 mph 93% 0 in 7 W/m2
04:34 53.6 °F 51.8 °F 29.9 in WSW 4.3 mph 3.1 mph 93% 0 in 9 W/m2
04:39 53.6 °F 51.8 °F 29.9 in SSW 5 mph 4.3 mph 93% 0 in 11 W/m2
04:44 53.6 °F 51.8 °F 29.9 in WSW 7.5 mph 4.3 mph 92% 0 in 11 W/m2
04:49 53.6 °F 51.8 °F 29.9 in W 5.6 mph 4.3 mph 92% 0 in 12 W/m2
04:54 53.6 °F 51.8 °F 29.9 in W 4.3 mph 3.7 mph 92% 0 in 11 W/m2
04:59 53.6 °F 51.8 °F 29.9 in WSW 4.3 mph 3.1 mph 92% 0 in 12 W/m2
05:04 53.6 °F 51.8 °F 29.9 in WSW 4.3 mph 3.1 mph 92% 0 in 21 W/m2
05:09 55.4 °F 51.8 °F 29.9 in SW 5 mph 5 mph 92% 0 in 23 W/m2
05:14 55.4 °F 51.8 °F 29.9 in WSW 6.2 mph 5 mph 91% 0 in 16 W/m2
05:19 55.4 °F 51.8 °F 29.9 in WSW 5.6 mph 5.6 mph 91% 0 in 11 W/m2
05:24 55.4 °F 51.8 °F 29.9 in W 4.3 mph 3.7 mph 91% 0 in 12 W/m2
05:29 55.4 °F 51.8 °F 29.9 in WSW 4.3 mph 3.7 mph 91% 0 in 16 W/m2
05:34 55.4 °F 51.8 °F 29.9 in WSW 4.3 mph 3.7 mph 91% 0 in 19 W/m2
05:39 55.4 °F 51.8 °F 29.9 in W 3.7 mph 2.5 mph 91% 0 in 23 W/m2
05:44 55.4 °F 51.8 °F 29.9 in W 3.1 mph 3.1 mph 90% 0 in 25 W/m2
05:49 55.4 °F 51.8 °F 29.9 in W 3.7 mph 2.5 mph 90% 0 in 25 W/m2
05:54 53.6 °F 51.8 °F 29.9 in W 3.7 mph 3.1 mph 90% 0 in 25 W/m2
05:59 53.6 °F 51.8 °F 29.9 in WSW 3.1 mph 1.9 mph 90% 0 in 21 W/m2
06:04 53.6 °F 51.8 °F 29.9 in WNW 3.1 mph 2.5 mph 91% 0 in 19 W/m2
06:09 53.6 °F 51.8 °F 29.9 in WSW 3.1 mph 1.9 mph 91% 0 in 18 W/m2
06:14 53.6 °F 51.8 °F 29.9 in W 1.9 mph 1.9 mph 91% 0 in 23 W/m2
06:19 53.6 °F 51.8 °F 29.9 in W 2.5 mph 1.9 mph 91% 0 in 32 W/m2
06:24 53.6 °F 51.8 °F 29.9 in WSW 2.5 mph 2.5 mph 91% 0 in 39 W/m2
06:29 53.6 °F 51.8 °F 29.9 in WSW 3.1 mph 3.1 mph 91% 0 in 39 W/m2
06:34 53.6 °F 51.8 °F 29.9 in W 2.5 mph 1.9 mph 91% 0 in 37 W/m2
06:39 53.6 °F 51.8 °F 29.9 in W 3.1 mph 1.9 mph 91% 0 in 35 W/m2
06:44 53.6 °F 51.8 °F 29.9 in W 3.7 mph 3.1 mph 91% 0 in 37 W/m2
06:49 53.6 °F 51.8 °F 29.9 in W 3.1 mph 1.9 mph 91% 0 in 40 W/m2
06:54 53.6 °F 51.8 °F 29.9 in WSW 1.9 mph 1.2 mph 91% 0 in 44 W/m2
06:59 53.6 °F 51.8 °F 29.9 in WSW 3.1 mph 2.5 mph 91% 0 in 46 W/m2
07:04 53.6 °F 51.8 °F 29.9 in W 3.7 mph 2.5 mph 91% 0 in 49 W/m2
07:09 53.6 °F 51.8 °F 29.9 in W 2.5 mph 1.9 mph 91% 0 in 56 W/m2
07:14 53.6 °F 51.8 °F 29.9 in W 3.1 mph 1.9 mph 91% 0 in 56 W/m2
07:19 55.4 °F 51.8 °F 29.9 in W 3.7 mph 3.1 mph 91% 0 in 49 W/m2
07:24 55.4 °F 51.8 °F 29.9 in WSW 3.1 mph 2.5 mph 91% 0 in 62 W/m2
07:29 55.4 °F 51.8 °F 29.9 in WSW 4.3 mph 3.7 mph 91% 0 in 67 W/m2
07:34 55.4 °F 51.8 °F 29.9 in W 3.7 mph 3.1 mph 91% 0 in 76 W/m2
07:39 55.4 °F 51.8 °F 29.9 in W 3.1 mph 2.5 mph 91% 0 in 81 W/m2
07:44 55.4 °F 51.8 °F 29.9 in SW 3.7 mph 1.9 mph 92% 0 in 84 W/m2
07:49 55.4 °F 51.8 °F 29.9 in SSW 5 mph 5.6 mph 92% 0 in 86 W/m2
07:54 55.4 °F 51.8 °F 29.9 in SW 3.7 mph 3.7 mph 92% 0 in 90 W/m2
07:59 55.4 °F 53.6 °F 29.9 in SW 5 mph 3.7 mph 92% 0 in 97 W/m2
08:04 55.4 °F 53.6 °F 29.9 in SW 3.7 mph 3.7 mph 92% 0 in 104 W/m2
08:09 55.4 °F 53.6 °F 29.9 in SSW 6.2 mph 6.2 mph 91% 0 in 105 W/m2
08:14 55.4 °F 51.8 °F 29.9 in SW 5.6 mph 5 mph 91% 0 in 116 W/m2
08:19 55.4 °F 53.6 °F 29.9 in SSW 5 mph 4.3 mph 91% 0 in 123 W/m2
08:24 55.4 °F 53.6 °F 29.9 in SW 6.8 mph 5.6 mph 91% 0 in 128 W/m2
08:29 55.4 °F 53.6 °F 29.9 in SW 8.1 mph 6.2 mph 90% 0 in 130 W/m2
08:34 55.4 °F 53.6 °F 29.9 in WSW 5 mph 3.7 mph 90% 0 in 128 W/m2
08:39 55.4 °F 53.6 °F 29.9 in SW 8.1 mph 6.2 mph 89% 0 in 120 W/m2
08:44 55.4 °F 51.8 °F 29.9 in SW 7.5 mph 5.6 mph 89% 0 in 107 W/m2
08:49 55.4 °F 53.6 °F 29.9 in SW 5.6 mph 4.3 mph 89% 0 in 113 W/m2
08:54 55.4 °F 53.6 °F 29.9 in WSW 6.2 mph 4.3 mph 89% 0 in 123 W/m2
08:59 55.4 °F 53.6 °F 29.9 in SW 6.2 mph 4.3 mph 89% 0 in 149 W/m2
09:04 55.4 °F 53.6 °F 29.9 in WSW 8.1 mph 4.3 mph 89% 0 in 172 W/m2
09:09 55.4 °F 53.6 °F 29.9 in SSE 5 mph 3.1 mph 89% 0 in 193 W/m2
09:14 57.2 °F 53.6 °F 29.9 in WNW 6.8 mph 5 mph 88% 0 in 204 W/m2
09:19 57.2 °F 53.6 °F 29.9 in SW 5.6 mph 5 mph 88% 0 in 213 W/m2
09:24 57.2 °F 53.6 °F 29.9 in WSW 6.8 mph 4.3 mph 87% 0 in 225 W/m2
09:29 57.2 °F 53.6 °F 29.9 in SSW 6.2 mph 3.7 mph 88% 0 in 244 W/m2
09:34 57.2 °F 53.6 °F 29.9 in WSW 5 mph 4.3 mph 88% 0 in 276 W/m2
09:39 57.2 °F 53.6 °F 29.9 in WSW 7.5 mph 4.3 mph 87% 0 in 309 W/m2
09:44 57.2 °F 53.6 °F 29.9 in SW 6.8 mph 5.6 mph 87% 0 in 339 W/m2
09:49 57.2 °F 53.6 °F 29.9 in SW 8.7 mph 6.2 mph 86% 0 in 380 W/m2
09:54 57.2 °F 53.6 °F 29.9 in WSW 5.6 mph 4.3 mph 86% 0 in 438 W/m2
09:59 59 °F 53.6 °F 29.9 in SW 8.1 mph 6.2 mph 85% 0 in 438 W/m2
10:04 59 °F 53.6 °F 29.9 in SW 9.9 mph 6.8 mph 85% 0 in 490 W/m2
10:09 59 °F 53.6 °F 29.9 in SSW 6.8 mph 5.6 mph 85% 0 in 490 W/m2
10:14 59 °F 53.6 °F 29.9 in WSW 7.5 mph 5 mph 84% 0 in 515 W/m2
10:19 59 °F 53.6 °F 29.9 in SW 9.9 mph 6.2 mph 84% 0 in 515 W/m2
10:24 59 °F 53.6 °F 29.9 in WSW 9.9 mph 8.1 mph 83% 0 in 475 W/m2
10:29 59 °F 53.6 °F 29.9 in SW 8.1 mph 5 mph 83% 0 in 394 W/m2
10:34 59 °F 53.6 °F 29.9 in SW 8.7 mph 6.8 mph 82% 0 in 378 W/m2
10:39 59 °F 53.6 °F 29.9 in SW 8.1 mph 6.8 mph 82% 0 in 327 W/m2
10:44 59 °F 53.6 °F 29.9 in SW 7.5 mph 6.2 mph 82% 0 in 267 W/m2
10:49 59 °F 53.6 °F 29.9 in SW 6.2 mph 5 mph 82% 0 in 276 W/m2
10:54 59 °F 53.6 °F 29.9 in WSW 7.5 mph 5 mph 82% 0 in 302 W/m2
10:59 59 °F 53.6 °F 29.9 in WSW 7.5 mph 5.6 mph 82% 0 in 304 W/m2
11:04 59 °F 53.6 °F 29.9 in WSW 6.8 mph 3.7 mph 81% 0 in 343 W/m2
11:09 59 °F 53.6 °F 29.9 in WSW 8.7 mph 5.6 mph 81% 0 in 362 W/m2
11:14 59 °F 53.6 °F 29.9 in SW 9.9 mph 7.5 mph 80% 0 in 394 W/m2
11:19 59 °F 53.6 °F 29.9 in SW 6.2 mph 5 mph 80% 0 in 411 W/m2
11:24 59 °F 53.6 °F 29.9 in SW 9.9 mph 7.5 mph 79% 0 in 424 W/m2
11:29 60.8 °F 53.6 °F 29.9 in W 10.6 mph 7.5 mph 79% 0 in 496 W/m2
11:34 60.8 °F 53.6 °F 29.9 in WSW 10.6 mph 6.8 mph 79% 0 in 564 W/m2
11:39 60.8 °F 53.6 °F 29.9 in WSW 11.2 mph 8.1 mph 78% 0 in 594 W/m2
11:44 60.8 °F 53.6 °F 29.9 in SW 9.9 mph 5.6 mph 78% 0 in 545 W/m2
11:49 60.8 °F 53.6 °F 29.9 in SSW 8.1 mph 5.6 mph 78% 0 in 411 W/m2
11:54 60.8 °F 53.6 °F 29.9 in SW 8.1 mph 5.6 mph 78% 0 in 411 W/m2
11:59 60.8 °F 53.6 °F 29.9 in SSW 9.9 mph 8.1 mph 78% 0 in 448 W/m2
12:04 60.8 °F 53.6 °F 29.9 in WSW 8.1 mph 5.6 mph 78% 0 in 438 W/m2
12:09 60.8 °F 53.6 °F 29.9 in WSW 11.2 mph 9.9 mph 78% 0 in 503 W/m2
12:14 60.8 °F 53.6 °F 29.9 in SW 9.9 mph 6.8 mph 78% 0 in 424 W/m2
12:19 60.8 °F 53.6 °F 29.9 in WSW 7.5 mph 4.3 mph 78% 0 in 469 W/m2
12:24 60.8 °F 53.6 °F 29.9 in SW 9.3 mph 6.2 mph 77% 0 in 610 W/m2
12:29 60.8 °F 53.6 °F 29.9 in SSW 9.3 mph 6.8 mph 77% 0 in 598 W/m2
12:34 60.8 °F 53.6 °F 29.9 in SW 9.9 mph 7.5 mph 78% 0 in 439 W/m2
12:39 60.8 °F 53.6 °F 29.9 in SW 10.6 mph 8.7 mph 78% 0 in 506 W/m2
12:44 60.8 °F 53.6 °F 29.9 in SSW 6.2 mph 4.3 mph 79% 0 in 457 W/m2
12:49 60.8 °F 53.6 °F 29.9 in WSW 9.3 mph 8.1 mph 78% 0 in 450 W/m2
12:54 60.8 °F 53.6 °F 29.9 in SW 8.7 mph 6.2 mph 78% 0 in 420 W/m2
12:59 60.8 °F 53.6 °F 29.9 in WSW 6.8 mph 5 mph 78% 0 in 418 W/m2
13:04 60.8 °F 55.4 °F 29.9 in SSW 7.5 mph 5 mph 78% 0 in 424 W/m2
13:09 60.8 °F 53.6 °F 29.9 in WNW 9.3 mph 5.6 mph 78% 0 in 399 W/m2
13:14 60.8 °F 53.6 °F 29.9 in WSW 9.3 mph 8.7 mph 78% 0 in 348 W/m2
13:19 60.8 °F 53.6 °F 29.9 in WSW 12.4 mph 8.7 mph 78% 0 in 350 W/m2
13:24 60.8 °F 53.6 °F 29.9 in W 10.6 mph 6.8 mph 78% 0 in 364 W/m2
13:29 60.8 °F 53.6 °F 29.9 in WSW 10.6 mph 6.8 mph 77% 0 in 364 W/m2
13:34 60.8 °F 53.6 °F 29.9 in W 8.1 mph 6.2 mph 77% 0 in 330 W/m2
13:39 60.8 °F 53.6 °F 29.9 in W 8.1 mph 5.6 mph 77% 0 in 352 W/m2
13:44 60.8 °F 53.6 °F 29.9 in WSW 8.1 mph 5 mph 77% 0 in 355 W/m2
13:49 60.8 °F 53.6 °F 29.9 in WSW 9.9 mph 6.8 mph 77% 0 in 381 W/m2
13:54 60.8 °F 53.6 °F 29.9 in W 8.1 mph 7.5 mph 77% 0 in 420 W/m2
13:59 60.8 °F 53.6 °F 29.9 in WSW 9.3 mph 8.7 mph 76% 0 in 418 W/m2
14:04 60.8 °F 53.6 °F 29.9 in WSW 7.5 mph 5.6 mph 76% 0 in 415 W/m2
14:09 60.8 °F 53.6 °F 29.9 in SSW 10.6 mph 7.5 mph 77% 0 in 403 W/m2
14:14 60.8 °F 53.6 °F 29.9 in SW 9.3 mph 6.2 mph 77% 0 in 364 W/m2
14:19 60.8 °F 53.6 °F 29.9 in WSW 8.1 mph 6.2 mph 77% 0 in 334 W/m2
14:24 60.8 °F 53.6 °F 29.9 in SW 8.1 mph 5.6 mph 78% 0 in 374 W/m2
14:29 60.8 °F 53.6 °F 29.9 in SSW 6.2 mph 5 mph 78% 0 in 401 W/m2
14:34 60.8 °F 53.6 °F 29.9 in SW 8.7 mph 6.2 mph 77% 0 in 425 W/m2
14:39 60.8 °F 53.6 °F 29.9 in SW 9.9 mph 7.5 mph 76% 0 in 434 W/m2
14:44 60.8 °F 53.6 °F 29.9 in WSW 8.1 mph 6.2 mph 76% 0 in 455 W/m2
14:49 62.6 °F 53.6 °F 29.9 in SW 8.7 mph 5.6 mph 76% 0 in 489 W/m2
14:54 62.6 °F 53.6 °F 29.9 in SW 8.1 mph 5.6 mph 76% 0 in 489 W/m2
14:59 62.6 °F 53.6 °F 29.9 in S 8.7 mph 8.7 mph 76% 0 in 424 W/m2
15:04 62.6 °F 55.4 °F 29.9 in WSW 9.3 mph 8.1 mph 76% 0 in 424 W/m2
15:09 62.6 °F 53.6 °F 29.9 in WNW 9.3 mph 6.8 mph 75% 0 in 392 W/m2
15:14 62.6 °F 53.6 °F 29.9 in W 10.6 mph 8.1 mph 74% 0 in 371 W/m2
15:19 62.6 °F 53.6 °F 29.9 in W 9.3 mph 6.8 mph 75% 0 in 387 W/m2
15:24 62.6 °F 53.6 °F 29.9 in WSW 9.9 mph 6.8 mph 74% 0 in 424 W/m2
15:29 62.6 °F 53.6 °F 29.9 in SW 10.6 mph 8.1 mph 74% 0 in 424 W/m2
15:34 62.6 °F 53.6 °F 29.9 in SW 11.8 mph 8.1 mph 74% 0 in 353 W/m2
15:39 62.6 °F 53.6 °F 29.9 in SSW 7.5 mph 6.2 mph 75% 0 in 425 W/m2
15:44 62.6 °F 53.6 °F 29.9 in SW 9.9 mph 6.8 mph 75% 0 in 468 W/m2
15:49 62.6 °F 53.6 °F 29.9 in SW 9.9 mph 7.5 mph 75% 0 in 468 W/m2
15:54 62.6 °F 53.6 °F 29.9 in SW 10.6 mph 6.8 mph 75% 0 in 431 W/m2
15:59 62.6 °F 53.6 °F 29.9 in SW 9.9 mph 5.6 mph 75% 0 in 383 W/m2
16:04 62.6 °F 53.6 °F 29.9 in SW 9.3 mph 6.8 mph 75% 0 in 399 W/m2
16:09 62.6 °F 53.6 °F 29.9 in SSW 8.1 mph 6.2 mph 75% 0 in 939 W/m2
16:14 62.6 °F 55.4 °F 29.9 in SW 10.6 mph 6.8 mph 74% 0 in 912 W/m2
16:19 62.6 °F 55.4 °F 29.9 in SW 6.2 mph 5.6 mph 73% 0 in 722 W/m2
16:24 62.6 °F 55.4 °F 29.9 in SW 8.7 mph 6.8 mph 72% 0 in 446 W/m2
16:29 62.6 °F 55.4 °F 29.9 in SW 8.1 mph 8.1 mph 73% 0 in 424 W/m2
16:34 62.6 °F 55.4 °F 29.9 in SW 11.2 mph 7.5 mph 74% 0 in 499 W/m2
16:39 62.6 °F 55.4 °F 29.9 in WSW 7.5 mph 6.2 mph 74% 0 in 700 W/m2
16:44 62.6 °F 55.4 °F 29.9 in SSW 11.8 mph 9.3 mph 73% 0 in 752 W/m2
16:49 62.6 °F 53.6 °F 29.9 in SW 12.4 mph 10.6 mph 73% 0 in 608 W/m2
16:54 62.6 °F 53.6 °F 29.9 in SSW 9.9 mph 8.7 mph 74% 0 in 599 W/m2
16:59 62.6 °F 55.4 °F 29.9 in SSW 11.2 mph 9.9 mph 74% 0 in 789 W/m2
17:04 62.6 °F 55.4 °F 29.9 in SW 9.9 mph 7.5 mph 74% 0 in 758 W/m2
17:09 64.4 °F 55.4 °F 29.9 in W 8.7 mph 7.5 mph 73% 0 in 642 W/m2
17:14 64.4 °F 53.6 °F 29.9 in WNW 11.2 mph 8.7 mph 69% 0 in 642 W/m2
17:19 64.4 °F 53.6 °F 29.9 in W 10.6 mph 8.7 mph 68% 0 in 635 W/m2
17:24 64.4 °F 53.6 °F 29.9 in W 12.4 mph 9.3 mph 67% 0 in 631 W/m2
17:29 66.2 °F 53.6 °F 29.9 in WNW 11.2 mph 9.9 mph 65% 0 in 617 W/m2
17:34 66.2 °F 53.6 °F 29.9 in WNW 11.8 mph 8.7 mph 64% 0 in 592 W/m2
17:39 66.2 °F 53.6 °F 29.9 in WNW 11.8 mph 9.9 mph 63% 0 in 578 W/m2
17:44 64.4 °F 53.6 °F 29.9 in WNW 10.6 mph 9.3 mph 64% 0 in 601 W/m2
17:49 64.4 °F 53.6 °F 29.9 in NW 13 mph 11.8 mph 64% 0 in 601 W/m2
17:54 64.4 °F 51.8 °F 29.9 in WNW 11.8 mph 10.6 mph 64% 0 in 578 W/m2
17:59 64.4 °F 53.6 °F 29.9 in NW 9.9 mph 11.2 mph 66% 0 in 570 W/m2
18:04 64.4 °F 51.8 °F 29.9 in WNW 18.6 mph 15.5 mph 64% 0 in 566 W/m2
18:09 64.4 °F 50 °F 29.9 in WNW 14.3 mph 9.9 mph 62% 0 in 538 W/m2
18:14 62.6 °F 50 °F 29.9 in WNW 9.9 mph 8.1 mph 64% 0 in 181 W/m2
18:19 62.6 °F 50 °F 29.9 in WNW 12.4 mph 10.6 mph 65% 0 in 188 W/m2
18:24 62.6 °F 51.8 °F 29.9 in WNW 12.4 mph 9.3 mph 65% 0 in 596 W/m2
18:29 64.4 °F 51.8 °F 29.9 in WNW 13.7 mph 9.9 mph 63% 0 in 529 W/m2
18:34 64.4 °F 51.8 °F 29.9 in WNW 16.2 mph 12.4 mph 63% 0 in 462 W/m2
18:39 62.6 °F 51.8 °F 29.9 in W 10.6 mph 8.7 mph 65% 0 in 181 W/m2
18:44 62.6 °F 51.8 °F 29.9 in WNW 12.4 mph 9.3 mph 66% 0 in 494 W/m2
18:49 62.6 °F 51.8 °F 29.9 in WNW 8.7 mph 6.8 mph 66% 0 in 494 W/m2
18:54 64.4 °F 51.8 °F 29.9 in W 8.7 mph 5.6 mph 66% 0 in 403 W/m2
18:59 64.4 °F 51.8 °F 29.9 in W 8.1 mph 6.8 mph 65% 0 in 371 W/m2
19:04 64.4 °F 51.8 °F 29.9 in WNW 10.6 mph 9.3 mph 64% 0 in 357 W/m2
19:09 62.6 °F 50 °F 29.9 in W 13 mph 9.3 mph 63% 0 in 350 W/m2
19:14 62.6 °F 50 °F 29.9 in WNW 13 mph 9.3 mph 64% 0 in 65 W/m2
19:19 60.8 °F 50 °F 29.9 in WNW 11.2 mph 8.7 mph 66% 0 in 91 W/m2
19:24 60.8 °F 50 °F 29.9 in WNW 9.9 mph 7.5 mph 67% 0 in 98 W/m2
19:29 60.8 °F 50 °F 29.9 in WNW 9.9 mph 7.5 mph 68% 0 in 81 W/m2
19:34 60.8 °F 50 °F 29.9 in WNW 9.9 mph 8.7 mph 68% 0 in 104 W/m2
19:39 60.8 °F 50 °F 29.9 in W 8.1 mph 6.2 mph 68% 0 in 127 W/m2
19:44 60.8 °F 50 °F 29.9 in W 10.6 mph 6.2 mph 68% 0 in 378 W/m2
19:49 62.6 °F 51.8 °F 29.9 in WNW 8.7 mph 7.5 mph 68% 0 in 378 W/m2
19:54 62.6 °F 51.8 °F 29.9 in W 6.2 mph 5 mph 67% 0 in 362 W/m2
Compliments of Weather Underground - 2 mb